sensor_id;sensor_type;location;lat;lon;timestamp;P1;durP1;ratioP1;P2;durP2;ratioP2
12519;SDS011;6325;49.540;8.364;2023-10-31T00:01:28;3.43;;;2.30;;
12519;SDS011;6325;49.540;8.364;2023-10-31T00:03:55;5.18;;;2.53;;
12519;SDS011;6325;49.540;8.364;2023-10-31T00:06:23;4.20;;;2.60;;
12519;SDS011;6325;49.540;8.364;2023-10-31T00:08:50;1.83;;;1.40;;
12519;SDS011;6325;49.540;8.364;2023-10-31T00:11:17;1.10;;;1.00;;
12519;SDS011;6325;49.540;8.364;2023-10-31T00:13:44;3.20;;;2.25;;
12519;SDS011;6325;49.540;8.364;2023-10-31T00:16:10;0.98;;;0.98;;
12519;SDS011;6325;49.540;8.364;2023-10-31T00:18:37;2.22;;;1.63;;
12519;SDS011;6325;49.540;8.364;2023-10-31T00:21:04;1.40;;;1.20;;
12519;SDS011;6325;49.540;8.364;2023-10-31T00:23:32;4.93;;;2.80;;
12519;SDS011;6325;49.540;8.364;2023-10-31T00:25:58;1.20;;;0.90;;
12519;SDS011;6325;49.540;8.364;2023-10-31T00:30:55;0.65;;;0.60;;
12519;SDS011;6325;49.540;8.364;2023-10-31T00:33:21;5.13;;;3.10;;
12519;SDS011;6325;49.540;8.364;2023-10-31T00:35:48;3.80;;;2.40;;
12519;SDS011;6325;49.540;8.364;2023-10-31T00:38:15;2.13;;;1.67;;
12519;SDS011;6325;49.540;8.364;2023-10-31T00:40:43;3.23;;;2.10;;
12519;SDS011;6325;49.540;8.364;2023-10-31T00:43:09;2.25;;;1.80;;
12519;SDS011;6325;49.540;8.364;2023-10-31T00:45:36;2.78;;;1.80;;
12519;SDS011;6325;49.540;8.364;2023-10-31T00:48:03;1.08;;;1.00;;
12519;SDS011;6325;49.540;8.364;2023-10-31T00:50:30;2.60;;;1.45;;
12519;SDS011;6325;49.540;8.364;2023-10-31T00:52:57;3.42;;;2.15;;
12519;SDS011;6325;49.540;8.364;2023-10-31T00:55:23;0.60;;;0.60;;
12519;SDS011;6325;49.540;8.364;2023-10-31T00:57:51;2.60;;;1.65;;
12519;SDS011;6325;49.540;8.364;2023-10-31T01:00:18;1.60;;;1.30;;
12519;SDS011;6325;49.540;8.364;2023-10-31T01:02:45;0.90;;;0.80;;
12519;SDS011;6325;49.540;8.364;2023-10-31T01:05:12;0.40;;;0.40;;
12519;SDS011;6325;49.540;8.364;2023-10-31T01:07:39;0.32;;;0.32;;
12519;SDS011;6325;49.540;8.364;2023-10-31T01:10:06;0.98;;;0.88;;
12519;SDS011;6325;49.540;8.364;2023-10-31T01:12:34;1.33;;;1.13;;
12519;SDS011;6325;49.540;8.364;2023-10-31T01:15:02;2.50;;;1.55;;
12519;SDS011;6325;49.540;8.364;2023-10-31T01:17:29;1.40;;;0.90;;
12519;SDS011;6325;49.540;8.364;2023-10-31T01:19:56;1.30;;;1.00;;
12519;SDS011;6325;49.540;8.364;2023-10-31T01:22:23;3.65;;;2.05;;
12519;SDS011;6325;49.540;8.364;2023-10-31T01:24:49;2.80;;;1.92;;
12519;SDS011;6325;49.540;8.364;2023-10-31T01:27:16;0.90;;;0.90;;
12519;SDS011;6325;49.540;8.364;2023-10-31T01:29:43;0.50;;;0.50;;
12519;SDS011;6325;49.540;8.364;2023-10-31T01:32:11;0.70;;;0.50;;
12519;SDS011;6325;49.540;8.364;2023-10-31T01:34:38;3.33;;;2.20;;
12519;SDS011;6325;49.540;8.364;2023-10-31T01:37:05;2.03;;;1.47;;
12519;SDS011;6325;49.540;8.364;2023-10-31T01:39:31;6.00;;;3.00;;
12519;SDS011;6325;49.540;8.364;2023-10-31T01:41:59;7.97;;;3.50;;
12519;SDS011;6325;49.540;8.364;2023-10-31T01:44:26;6.28;;;3.60;;
12519;SDS011;6325;49.540;8.364;2023-10-31T01:46:53;4.30;;;2.40;;
12519;SDS011;6325;49.540;8.364;2023-10-31T01:49:21;0.85;;;0.85;;
12519;SDS011;6325;49.540;8.364;2023-10-31T01:51:48;1.20;;;0.82;;
12519;SDS011;6325;49.540;8.364;2023-10-31T01:54:15;1.10;;;1.00;;
12519;SDS011;6325;49.540;8.364;2023-10-31T01:56:42;0.85;;;0.85;;
12519;SDS011;6325;49.540;8.364;2023-10-31T01:59:13;3.45;;;2.17;;
12519;SDS011;6325;49.540;8.364;2023-10-31T02:01:39;8.35;;;4.30;;
12519;SDS011;6325;49.540;8.364;2023-10-31T02:04:07;6.78;;;3.72;;
12519;SDS011;6325;49.540;8.364;2023-10-31T02:06:35;6.80;;;3.95;;
12519;SDS011;6325;49.540;8.364;2023-10-31T02:09:02;5.95;;;3.75;;
12519;SDS011;6325;49.540;8.364;2023-10-31T02:11:29;8.80;;;4.53;;
12519;SDS011;6325;49.540;8.364;2023-10-31T02:13:55;6.07;;;3.88;;
12519;SDS011;6325;49.540;8.364;2023-10-31T02:16:22;3.30;;;2.10;;
12519;SDS011;6325;49.540;8.364;2023-10-31T02:18:50;6.72;;;3.58;;
12519;SDS011;6325;49.540;8.364;2023-10-31T02:21:17;11.02;;;5.07;;
12519;SDS011;6325;49.540;8.364;2023-10-31T02:23:56;8.40;;;4.88;;
12519;SDS011;6325;49.540;8.364;2023-10-31T02:26:23;5.65;;;3.10;;
12519;SDS011;6325;49.540;8.364;2023-10-31T02:28:50;1.45;;;1.10;;
12519;SDS011;6325;49.540;8.364;2023-10-31T02:31:16;1.02;;;0.95;;
12519;SDS011;6325;49.540;8.364;2023-10-31T02:33:43;1.10;;;1.00;;
12519;SDS011;6325;49.540;8.364;2023-10-31T02:36:10;0.52;;;0.52;;
12519;SDS011;6325;49.540;8.364;2023-10-31T02:38:37;0.40;;;0.40;;
12519;SDS011;6325;49.540;8.364;2023-10-31T02:41:05;0.60;;;0.60;;
12519;SDS011;6325;49.540;8.364;2023-10-31T02:43:32;0.40;;;0.40;;
12519;SDS011;6325;49.540;8.364;2023-10-31T02:45:58;0.70;;;0.50;;
12519;SDS011;6325;49.540;8.364;2023-10-31T02:48:25;0.45;;;0.45;;
12519;SDS011;6325;49.540;8.364;2023-10-31T02:50:52;0.75;;;0.60;;
12519;SDS011;6325;49.540;8.364;2023-10-31T02:53:19;1.50;;;1.40;;
12519;SDS011;6325;49.540;8.364;2023-10-31T02:55:46;0.93;;;0.90;;
12519;SDS011;6325;49.540;8.364;2023-10-31T02:58:14;3.42;;;2.17;;
12519;SDS011;6325;49.540;8.364;2023-10-31T03:00:42;3.55;;;1.80;;
12519;SDS011;6325;49.540;8.364;2023-10-31T03:03:09;1.30;;;1.20;;
12519;SDS011;6325;49.540;8.364;2023-10-31T03:05:35;0.90;;;0.70;;
12519;SDS011;6325;49.540;8.364;2023-10-31T03:08:02;0.70;;;0.60;;
12519;SDS011;6325;49.540;8.364;2023-10-31T03:10:29;0.30;;;0.30;;
12519;SDS011;6325;49.540;8.364;2023-10-31T03:12:56;0.73;;;0.50;;
12519;SDS011;6325;49.540;8.364;2023-10-31T03:15:25;1.50;;;1.10;;
12519;SDS011;6325;49.540;8.364;2023-10-31T03:17:52;0.50;;;0.50;;
12519;SDS011;6325;49.540;8.364;2023-10-31T03:20:19;0.77;;;0.60;;
12519;SDS011;6325;49.540;8.364;2023-10-31T03:22:45;0.90;;;0.90;;
12519;SDS011;6325;49.540;8.364;2023-10-31T03:25:12;5.03;;;2.30;;
12519;SDS011;6325;49.540;8.364;2023-10-31T03:27:39;1.85;;;1.20;;
12519;SDS011;6325;49.540;8.364;2023-10-31T03:30:06;0.80;;;0.70;;
12519;SDS011;6325;49.540;8.364;2023-10-31T03:32:35;0.73;;;0.60;;
12519;SDS011;6325;49.540;8.364;2023-10-31T03:35:02;0.85;;;0.47;;
12519;SDS011;6325;49.540;8.364;2023-10-31T03:37:29;0.50;;;0.50;;
12519;SDS011;6325;49.540;8.364;2023-10-31T03:39:56;0.65;;;0.60;;
12519;SDS011;6325;49.540;8.364;2023-10-31T03:42:23;4.90;;;3.08;;
12519;SDS011;6325;49.540;8.364;2023-10-31T03:44:49;1.65;;;1.40;;
12519;SDS011;6325;49.540;8.364;2023-10-31T03:47:16;1.27;;;0.85;;
12519;SDS011;6325;49.540;8.364;2023-10-31T03:49:44;2.35;;;1.30;;
12519;SDS011;6325;49.540;8.364;2023-10-31T03:52:11;0.50;;;0.50;;
12519;SDS011;6325;49.540;8.364;2023-10-31T03:54:38;1.58;;;1.00;;
12519;SDS011;6325;49.540;8.364;2023-10-31T03:57:04;3.23;;;1.80;;
12519;SDS011;6325;49.540;8.364;2023-10-31T03:59:31;5.65;;;3.15;;
12519;SDS011;6325;49.540;8.364;2023-10-31T04:01:58;2.72;;;1.40;;
12519;SDS011;6325;49.540;8.364;2023-10-31T04:04:24;2.85;;;2.00;;
12519;SDS011;6325;49.540;8.364;2023-10-31T04:06:52;1.85;;;1.60;;
12519;SDS011;6325;49.540;8.364;2023-10-31T04:09:19;1.38;;;0.93;;
12519;SDS011;6325;49.540;8.364;2023-10-31T04:11:46;2.05;;;1.60;;
12519;SDS011;6325;49.540;8.364;2023-10-31T04:14:12;1.55;;;1.10;;
12519;SDS011;6325;49.540;8.364;2023-10-31T04:16:39;1.40;;;0.93;;
12519;SDS011;6325;49.540;8.364;2023-10-31T04:19:10;2.65;;;1.45;;
12519;SDS011;6325;49.540;8.364;2023-10-31T04:21:37;1.20;;;0.90;;
12519;SDS011;6325;49.540;8.364;2023-10-31T04:24:05;0.38;;;0.38;;
12519;SDS011;6325;49.540;8.364;2023-10-31T04:26:32;0.50;;;0.40;;
12519;SDS011;6325;49.540;8.364;2023-10-31T04:28:59;0.40;;;0.40;;
12519;SDS011;6325;49.540;8.364;2023-10-31T04:31:26;0.60;;;0.40;;
12519;SDS011;6325;49.540;8.364;2023-10-31T04:33:52;0.70;;;0.55;;
12519;SDS011;6325;49.540;8.364;2023-10-31T04:36:19;0.98;;;0.40;;
12519;SDS011;6325;49.540;8.364;2023-10-31T04:38:46;0.50;;;0.45;;
12519;SDS011;6325;49.540;8.364;2023-10-31T04:41:14;0.98;;;0.52;;
12519;SDS011;6325;49.540;8.364;2023-10-31T04:43:40;0.40;;;0.40;;
12519;SDS011;6325;49.540;8.364;2023-10-31T04:46:07;0.50;;;0.50;;
12519;SDS011;6325;49.540;8.364;2023-10-31T04:48:34;0.50;;;0.50;;
12519;SDS011;6325;49.540;8.364;2023-10-31T04:51:00;0.40;;;0.40;;
12519;SDS011;6325;49.540;8.364;2023-10-31T04:53:27;0.50;;;0.50;;
12519;SDS011;6325;49.540;8.364;2023-10-31T04:55:54;0.57;;;0.50;;
12519;SDS011;6325;49.540;8.364;2023-10-31T04:58:22;0.40;;;0.40;;
12519;SDS011;6325;49.540;8.364;2023-10-31T05:00:48;0.47;;;0.47;;
12519;SDS011;6325;49.540;8.364;2023-10-31T05:03:15;0.50;;;0.50;;
12519;SDS011;6325;49.540;8.364;2023-10-31T05:05:42;1.20;;;1.10;;
12519;SDS011;6325;49.540;8.364;2023-10-31T05:08:10;3.13;;;2.20;;
12519;SDS011;6325;49.540;8.364;2023-10-31T05:10:37;0.80;;;0.80;;
12519;SDS011;6325;49.540;8.364;2023-10-31T05:13:03;0.60;;;0.60;;
12519;SDS011;6325;49.540;8.364;2023-10-31T05:15:32;0.90;;;0.70;;
12519;SDS011;6325;49.540;8.364;2023-10-31T05:17:59;0.60;;;0.60;;
12519;SDS011;6325;49.540;8.364;2023-10-31T05:20:25;0.50;;;0.50;;
12519;SDS011;6325;49.540;8.364;2023-10-31T05:22:52;0.90;;;0.60;;
12519;SDS011;6325;49.540;8.364;2023-10-31T05:25:19;0.60;;;0.60;;
12519;SDS011;6325;49.540;8.364;2023-10-31T05:27:45;0.45;;;0.45;;
12519;SDS011;6325;49.540;8.364;2023-10-31T05:30:13;0.60;;;0.60;;
12519;SDS011;6325;49.540;8.364;2023-10-31T05:32:41;1.38;;;0.98;;
12519;SDS011;6325;49.540;8.364;2023-10-31T05:35:09;1.10;;;0.80;;
12519;SDS011;6325;49.540;8.364;2023-10-31T05:37:36;2.67;;;1.58;;
12519;SDS011;6325;49.540;8.364;2023-10-31T05:40:03;1.00;;;1.00;;
12519;SDS011;6325;49.540;8.364;2023-10-31T05:42:30;0.65;;;0.65;;
12519;SDS011;6325;49.540;8.364;2023-10-31T05:44:57;0.60;;;0.60;;
12519;SDS011;6325;49.540;8.364;2023-10-31T05:47:24;0.60;;;0.60;;
12519;SDS011;6325;49.540;8.364;2023-10-31T05:49:52;2.05;;;1.30;;
12519;SDS011;6325;49.540;8.364;2023-10-31T05:52:18;2.37;;;1.40;;
12519;SDS011;6325;49.540;8.364;2023-10-31T05:54:45;0.85;;;0.60;;
12519;SDS011;6325;49.540;8.364;2023-10-31T05:57:12;0.45;;;0.45;;
12519;SDS011;6325;49.540;8.364;2023-10-31T05:59:39;0.60;;;0.60;;
12519;SDS011;6325;49.540;8.364;2023-10-31T06:02:05;2.17;;;1.63;;
12519;SDS011;6325;49.540;8.364;2023-10-31T06:04:32;1.10;;;1.00;;
12519;SDS011;6325;49.540;8.364;2023-10-31T06:07:00;1.25;;;0.82;;
12519;SDS011;6325;49.540;8.364;2023-10-31T06:09:27;0.93;;;0.80;;
12519;SDS011;6325;49.540;8.364;2023-10-31T06:11:54;1.08;;;1.00;;
12519;SDS011;6325;49.540;8.364;2023-10-31T06:14:21;0.75;;;0.75;;
12519;SDS011;6325;49.540;8.364;2023-10-31T06:16:47;0.60;;;0.60;;
12519;SDS011;6325;49.540;8.364;2023-10-31T06:19:14;0.40;;;0.40;;
12519;SDS011;6325;49.540;8.364;2023-10-31T06:21:41;0.43;;;0.43;;
12519;SDS011;6325;49.540;8.364;2023-10-31T06:24:09;0.50;;;0.50;;
12519;SDS011;6325;49.540;8.364;2023-10-31T06:26:36;0.50;;;0.50;;
12519;SDS011;6325;49.540;8.364;2023-10-31T06:29:03;0.50;;;0.50;;
12519;SDS011;6325;49.540;8.364;2023-10-31T06:31:30;0.40;;;0.40;;
12519;SDS011;6325;49.540;8.364;2023-10-31T06:33:58;0.70;;;0.60;;
12519;SDS011;6325;49.540;8.364;2023-10-31T06:36:25;0.50;;;0.50;;
12519;SDS011;6325;49.540;8.364;2023-10-31T06:38:51;0.50;;;0.50;;
12519;SDS011;6325;49.540;8.364;2023-10-31T06:41:20;0.50;;;0.50;;
12519;SDS011;6325;49.540;8.364;2023-10-31T06:43:46;1.23;;;0.70;;
12519;SDS011;6325;49.540;8.364;2023-10-31T06:46:13;0.83;;;0.83;;
12519;SDS011;6325;49.540;8.364;2023-10-31T06:48:41;1.07;;;0.80;;
12519;SDS011;6325;49.540;8.364;2023-10-31T06:51:07;0.90;;;0.50;;
12519;SDS011;6325;49.540;8.364;2023-10-31T06:53:34;0.50;;;0.50;;
12519;SDS011;6325;49.540;8.364;2023-10-31T06:56:01;0.70;;;0.50;;
12519;SDS011;6325;49.540;8.364;2023-10-31T06:58:30;0.60;;;0.60;;
12519;SDS011;6325;49.540;8.364;2023-10-31T07:00:56;2.17;;;1.42;;
12519;SDS011;6325;49.540;8.364;2023-10-31T07:03:24;0.85;;;0.75;;
12519;SDS011;6325;49.540;8.364;2023-10-31T07:05:51;0.60;;;0.60;;
12519;SDS011;6325;49.540;8.364;2023-10-31T07:08:18;1.90;;;1.40;;
12519;SDS011;6325;49.540;8.364;2023-10-31T07:10:45;4.47;;;2.55;;
12519;SDS011;6325;49.540;8.364;2023-10-31T07:13:11;3.60;;;2.65;;
12519;SDS011;6325;49.540;8.364;2023-10-31T07:15:39;1.52;;;1.30;;
12519;SDS011;6325;49.540;8.364;2023-10-31T07:18:06;3.05;;;2.30;;
12519;SDS011;6325;49.540;8.364;2023-10-31T07:20:33;3.17;;;2.22;;
12519;SDS011;6325;49.540;8.364;2023-10-31T07:23:00;0.77;;;0.70;;
12519;SDS011;6325;49.540;8.364;2023-10-31T07:25:27;0.80;;;0.75;;
12519;SDS011;6325;49.540;8.364;2023-10-31T07:27:54;1.58;;;1.10;;
12519;SDS011;6325;49.540;8.364;2023-10-31T07:30:20;1.80;;;1.58;;
12519;SDS011;6325;49.540;8.364;2023-10-31T07:32:49;0.70;;;0.70;;
12519;SDS011;6325;49.540;8.364;2023-10-31T07:35:15;2.42;;;1.50;;
12519;SDS011;6325;49.540;8.364;2023-10-31T07:37:42;2.35;;;1.05;;
12519;SDS011;6325;49.540;8.364;2023-10-31T07:40:09;0.98;;;0.80;;
12519;SDS011;6325;49.540;8.364;2023-10-31T07:42:37;0.80;;;0.80;;
12519;SDS011;6325;49.540;8.364;2023-10-31T07:45:04;0.90;;;0.90;;
12519;SDS011;6325;49.540;8.364;2023-10-31T07:47:31;1.98;;;1.48;;
12519;SDS011;6325;49.540;8.364;2023-10-31T07:49:59;2.10;;;1.70;;
12519;SDS011;6325;49.540;8.364;2023-10-31T07:52:26;0.90;;;0.88;;
12519;SDS011;6325;49.540;8.364;2023-10-31T07:54:53;3.55;;;2.38;;
12519;SDS011;6325;49.540;8.364;2023-10-31T07:57:19;5.57;;;3.45;;
12519;SDS011;6325;49.540;8.364;2023-10-31T07:59:46;5.70;;;3.60;;
12519;SDS011;6325;49.540;8.364;2023-10-31T08:02:13;9.63;;;4.70;;
12519;SDS011;6325;49.540;8.364;2023-10-31T08:04:40;4.20;;;3.30;;
12519;SDS011;6325;49.540;8.364;2023-10-31T08:07:08;5.73;;;3.20;;
12519;SDS011;6325;49.540;8.364;2023-10-31T08:09:34;5.95;;;3.63;;
12519;SDS011;6325;49.540;8.364;2023-10-31T08:12:01;9.60;;;5.35;;
12519;SDS011;6325;49.540;8.364;2023-10-31T08:14:28;8.10;;;4.50;;
12519;SDS011;6325;49.540;8.364;2023-10-31T08:16:55;7.57;;;4.10;;
12519;SDS011;6325;49.540;8.364;2023-10-31T08:19:21;8.10;;;4.57;;
12519;SDS011;6325;49.540;8.364;2023-10-31T08:21:48;6.33;;;4.00;;
12519;SDS011;6325;49.540;8.364;2023-10-31T08:24:16;7.25;;;4.47;;
12519;SDS011;6325;49.540;8.364;2023-10-31T08:26:43;2.78;;;2.03;;
12519;SDS011;6325;49.540;8.364;2023-10-31T08:29:10;3.28;;;2.15;;
12519;SDS011;6325;49.540;8.364;2023-10-31T08:31:36;3.95;;;2.50;;
12519;SDS011;6325;49.540;8.364;2023-10-31T08:34:03;4.05;;;3.00;;
12519;SDS011;6325;49.540;8.364;2023-10-31T08:36:30;5.30;;;3.45;;
12519;SDS011;6325;49.540;8.364;2023-10-31T08:38:57;2.07;;;1.80;;
12519;SDS011;6325;49.540;8.364;2023-10-31T08:41:25;5.15;;;3.55;;
12519;SDS011;6325;49.540;8.364;2023-10-31T08:43:52;4.97;;;3.13;;
12519;SDS011;6325;49.540;8.364;2023-10-31T08:46:19;2.13;;;1.90;;
12519;SDS011;6325;49.540;8.364;2023-10-31T08:48:46;1.65;;;1.42;;
12519;SDS011;6325;49.540;8.364;2023-10-31T08:51:13;1.08;;;1.02;;
12519;SDS011;6325;49.540;8.364;2023-10-31T08:53:40;1.40;;;1.30;;
12519;SDS011;6325;49.540;8.364;2023-10-31T08:56:07;1.15;;;1.10;;
12519;SDS011;6325;49.540;8.364;2023-10-31T08:58:35;1.65;;;1.55;;
12519;SDS011;6325;49.540;8.364;2023-10-31T09:01:02;4.50;;;2.88;;
12519;SDS011;6325;49.540;8.364;2023-10-31T09:03:29;3.97;;;2.57;;
12519;SDS011;6325;49.540;8.364;2023-10-31T09:05:56;3.93;;;2.60;;
12519;SDS011;6325;49.540;8.364;2023-10-31T09:08:22;6.90;;;3.47;;
12519;SDS011;6325;49.540;8.364;2023-10-31T09:10:49;6.88;;;3.60;;
12519;SDS011;6325;49.540;8.364;2023-10-31T09:13:16;7.05;;;4.28;;
12519;SDS011;6325;49.540;8.364;2023-10-31T09:15:44;5.50;;;3.15;;
12519;SDS011;6325;49.540;8.364;2023-10-31T09:18:11;7.00;;;4.47;;
12519;SDS011;6325;49.540;8.364;2023-10-31T09:20:38;6.37;;;4.17;;
12519;SDS011;6325;49.540;8.364;2023-10-31T09:23:04;3.87;;;2.43;;
12519;SDS011;6325;49.540;8.364;2023-10-31T09:25:31;5.07;;;2.93;;
12519;SDS011;6325;49.540;8.364;2023-10-31T09:27:58;1.70;;;1.17;;
12519;SDS011;6325;49.540;8.364;2023-10-31T09:30:25;6.45;;;4.00;;
12519;SDS011;6325;49.540;8.364;2023-10-31T09:32:53;4.28;;;2.50;;
12519;SDS011;6325;49.540;8.364;2023-10-31T09:35:19;3.92;;;2.30;;
12519;SDS011;6325;49.540;8.364;2023-10-31T09:37:46;1.00;;;0.82;;
12519;SDS011;6325;49.540;8.364;2023-10-31T09:40:14;2.38;;;1.67;;
12519;SDS011;6325;49.540;8.364;2023-10-31T09:42:41;2.80;;;1.50;;
12519;SDS011;6325;49.540;8.364;2023-10-31T09:45:10;3.15;;;1.83;;
12519;SDS011;6325;49.540;8.364;2023-10-31T09:47:36;2.00;;;1.45;;
12519;SDS011;6325;49.540;8.364;2023-10-31T09:50:05;1.35;;;0.90;;
12519;SDS011;6325;49.540;8.364;2023-10-31T09:52:34;2.97;;;2.08;;
12519;SDS011;6325;49.540;8.364;2023-10-31T09:55:02;2.58;;;1.80;;
12519;SDS011;6325;49.540;8.364;2023-10-31T09:57:30;1.15;;;1.05;;
12519;SDS011;6325;49.540;8.364;2023-10-31T09:59:56;0.70;;;0.70;;
12519;SDS011;6325;49.540;8.364;2023-10-31T10:02:23;2.60;;;1.60;;
12519;SDS011;6325;49.540;8.364;2023-10-31T10:04:50;5.65;;;2.90;;
12519;SDS011;6325;49.540;8.364;2023-10-31T10:07:19;3.97;;;2.60;;
12519;SDS011;6325;49.540;8.364;2023-10-31T10:09:46;1.20;;;1.08;;
12519;SDS011;6325;49.540;8.364;2023-10-31T10:12:13;0.90;;;0.80;;
12519;SDS011;6325;49.540;8.364;2023-10-31T10:14:41;4.43;;;2.90;;
12519;SDS011;6325;49.540;8.364;2023-10-31T10:17:13;10.07;;;4.93;;
12519;SDS011;6325;49.540;8.364;2023-10-31T10:19:41;7.80;;;4.25;;
12519;SDS011;6325;49.540;8.364;2023-10-31T10:22:08;3.50;;;2.00;;
12519;SDS011;6325;49.540;8.364;2023-10-31T10:24:38;4.30;;;2.80;;
12519;SDS011;6325;49.540;8.364;2023-10-31T10:27:06;9.10;;;4.78;;
12519;SDS011;6325;49.540;8.364;2023-10-31T10:29:34;3.92;;;2.30;;
12519;SDS011;6325;49.540;8.364;2023-10-31T10:32:01;9.70;;;5.17;;
12519;SDS011;6325;49.540;8.364;2023-10-31T10:34:31;5.22;;;2.70;;
12519;SDS011;6325;49.540;8.364;2023-10-31T10:36:57;6.25;;;3.63;;
12519;SDS011;6325;49.540;8.364;2023-10-31T10:39:24;9.77;;;4.35;;
12519;SDS011;6325;49.540;8.364;2023-10-31T10:41:53;13.02;;;5.68;;
12519;SDS011;6325;49.540;8.364;2023-10-31T10:44:23;10.57;;;5.17;;
12519;SDS011;6325;49.540;8.364;2023-10-31T10:46:57;7.93;;;4.90;;
12519;SDS011;6325;49.540;8.364;2023-10-31T10:49:27;4.82;;;2.42;;
12519;SDS011;6325;49.540;8.364;2023-10-31T10:51:56;4.07;;;2.47;;
12519;SDS011;6325;49.540;8.364;2023-10-31T10:54:30;2.77;;;1.10;;
12519;SDS011;6325;49.540;8.364;2023-10-31T10:57:06;2.97;;;2.20;;
12519;SDS011;6325;49.540;8.364;2023-10-31T10:59:40;10.13;;;4.85;;
12519;SDS011;6325;49.540;8.364;2023-10-31T11:02:08;7.90;;;3.88;;
12519;SDS011;6325;49.540;8.364;2023-10-31T11:04:36;8.10;;;3.97;;
12519;SDS011;6325;49.540;8.364;2023-10-31T11:07:04;7.55;;;3.40;;
12519;SDS011;6325;49.540;8.364;2023-10-31T11:09:31;9.43;;;4.10;;
12519;SDS011;6325;49.540;8.364;2023-10-31T11:11:59;2.25;;;1.60;;
12519;SDS011;6325;49.540;8.364;2023-10-31T11:14:29;6.65;;;3.03;;
12519;SDS011;6325;49.540;8.364;2023-10-31T11:16:58;2.10;;;1.50;;
12519;SDS011;6325;49.540;8.364;2023-10-31T11:19:29;3.05;;;1.83;;
12519;SDS011;6325;49.540;8.364;2023-10-31T11:21:57;2.25;;;1.58;;
12519;SDS011;6325;49.540;8.364;2023-10-31T11:24:26;4.10;;;2.13;;
12519;SDS011;6325;49.540;8.364;2023-10-31T11:26:53;3.60;;;2.20;;
12519;SDS011;6325;49.540;8.364;2023-10-31T11:29:24;5.18;;;3.00;;
12519;SDS011;6325;49.540;8.364;2023-10-31T11:31:53;3.03;;;1.90;;
12519;SDS011;6325;49.540;8.364;2023-10-31T11:34:20;1.50;;;1.40;;
12519;SDS011;6325;49.540;8.364;2023-10-31T11:36:47;2.15;;;1.45;;
12519;SDS011;6325;49.540;8.364;2023-10-31T11:39:14;3.25;;;1.85;;
12519;SDS011;6325;49.540;8.364;2023-10-31T11:41:45;1.90;;;1.20;;
12519;SDS011;6325;49.540;8.364;2023-10-31T11:44:15;2.85;;;1.63;;
12519;SDS011;6325;49.540;8.364;2023-10-31T11:46:42;4.50;;;2.60;;
12519;SDS011;6325;49.540;8.364;2023-10-31T11:49:14;7.50;;;4.33;;
12519;SDS011;6325;49.540;8.364;2023-10-31T11:51:41;5.68;;;3.42;;
12519;SDS011;6325;49.540;8.364;2023-10-31T11:54:11;4.30;;;2.60;;
12519;SDS011;6325;49.540;8.364;2023-10-31T11:56:39;4.28;;;2.65;;
12519;SDS011;6325;49.540;8.364;2023-10-31T11:59:06;7.63;;;4.40;;
12519;SDS011;6325;49.540;8.364;2023-10-31T12:01:43;8.32;;;4.47;;
12519;SDS011;6325;49.540;8.364;2023-10-31T12:04:21;6.97;;;3.85;;
12519;SDS011;6325;49.540;8.364;2023-10-31T12:06:56;2.20;;;1.10;;
12519;SDS011;6325;49.540;8.364;2023-10-31T12:09:24;3.30;;;1.95;;
12519;SDS011;6325;49.540;8.364;2023-10-31T12:11:51;6.90;;;3.75;;
12519;SDS011;6325;49.540;8.364;2023-10-31T12:14:18;8.00;;;4.23;;
12519;SDS011;6325;49.540;8.364;2023-10-31T12:16:45;4.33;;;2.63;;
12519;SDS011;6325;49.540;8.364;2023-10-31T12:19:12;6.57;;;3.95;;
12519;SDS011;6325;49.540;8.364;2023-10-31T12:21:41;3.08;;;1.83;;
12519;SDS011;6325;49.540;8.364;2023-10-31T12:24:12;4.85;;;3.08;;
12519;SDS011;6325;49.540;8.364;2023-10-31T12:26:39;4.70;;;2.83;;
12519;SDS011;6325;49.540;8.364;2023-10-31T12:31:49;6.10;;;3.43;;
12519;SDS011;6325;49.540;8.364;2023-10-31T12:34:19;6.40;;;3.60;;
12519;SDS011;6325;49.540;8.364;2023-10-31T12:36:49;3.90;;;2.72;;
12519;SDS011;6325;49.540;8.364;2023-10-31T12:39:17;1.55;;;1.10;;
12519;SDS011;6325;49.540;8.364;2023-10-31T12:41:48;1.83;;;1.20;;
12519;SDS011;6325;49.540;8.364;2023-10-31T12:44:17;1.35;;;1.17;;
12519;SDS011;6325;49.540;8.364;2023-10-31T12:46:49;2.78;;;1.90;;
12519;SDS011;6325;49.540;8.364;2023-10-31T12:49:17;1.75;;;1.65;;
12519;SDS011;6325;49.540;8.364;2023-10-31T12:51:59;3.20;;;2.20;;
12519;SDS011;6325;49.540;8.364;2023-10-31T12:54:30;4.78;;;3.17;;
12519;SDS011;6325;49.540;8.364;2023-10-31T12:56:58;9.05;;;4.57;;
12519;SDS011;6325;49.540;8.364;2023-10-31T12:59:26;7.53;;;4.05;;
12519;SDS011;6325;49.540;8.364;2023-10-31T13:01:53;2.30;;;1.60;;
12519;SDS011;6325;49.540;8.364;2023-10-31T13:04:24;1.40;;;1.30;;
12519;SDS011;6325;49.540;8.364;2023-10-31T13:06:55;1.73;;;1.23;;
12519;SDS011;6325;49.540;8.364;2023-10-31T13:09:30;1.60;;;1.13;;
12519;SDS011;6325;49.540;8.364;2023-10-31T13:11:59;3.88;;;2.50;;
12519;SDS011;6325;49.540;8.364;2023-10-31T13:14:27;12.65;;;6.10;;
12519;SDS011;6325;49.540;8.364;2023-10-31T13:16:54;4.07;;;2.53;;
12519;SDS011;6325;49.540;8.364;2023-10-31T13:19:20;1.33;;;1.23;;
12519;SDS011;6325;49.540;8.364;2023-10-31T13:21:47;1.70;;;1.52;;
12519;SDS011;6325;49.540;8.364;2023-10-31T13:24:15;9.30;;;4.72;;
12519;SDS011;6325;49.540;8.364;2023-10-31T13:26:42;8.35;;;3.92;;
12519;SDS011;6325;49.540;8.364;2023-10-31T13:29:10;5.97;;;3.17;;
12519;SDS011;6325;49.540;8.364;2023-10-31T13:31:37;3.80;;;2.65;;
12519;SDS011;6325;49.540;8.364;2023-10-31T13:34:04;6.72;;;4.20;;
12519;SDS011;6325;49.540;8.364;2023-10-31T13:36:31;7.57;;;4.97;;
12519;SDS011;6325;49.540;8.364;2023-10-31T13:38:57;7.20;;;4.30;;
12519;SDS011;6325;49.540;8.364;2023-10-31T13:41:25;8.50;;;4.65;;
12519;SDS011;6325;49.540;8.364;2023-10-31T13:43:52;4.82;;;3.42;;
12519;SDS011;6325;49.540;8.364;2023-10-31T13:46:19;3.72;;;2.90;;
12519;SDS011;6325;49.540;8.364;2023-10-31T13:48:45;2.93;;;2.20;;
12519;SDS011;6325;49.540;8.364;2023-10-31T13:51:12;1.43;;;1.33;;
12519;SDS011;6325;49.540;8.364;2023-10-31T13:53:41;1.20;;;1.20;;
12519;SDS011;6325;49.540;8.364;2023-10-31T13:56:09;3.20;;;1.90;;
12519;SDS011;6325;49.540;8.364;2023-10-31T13:58:37;4.47;;;2.75;;
12519;SDS011;6325;49.540;8.364;2023-10-31T14:01:03;4.57;;;2.80;;
12519;SDS011;6325;49.540;8.364;2023-10-31T14:03:31;2.58;;;1.90;;
12519;SDS011;6325;49.540;8.364;2023-10-31T14:05:57;4.40;;;3.03;;
12519;SDS011;6325;49.540;8.364;2023-10-31T14:08:24;6.32;;;3.45;;
12519;SDS011;6325;49.540;8.364;2023-10-31T14:10:51;8.95;;;6.18;;
12519;SDS011;6325;49.540;8.364;2023-10-31T14:13:21;15.50;;;9.82;;
12519;SDS011;6325;49.540;8.364;2023-10-31T14:15:49;9.30;;;4.60;;
12519;SDS011;6325;49.540;8.364;2023-10-31T14:18:16;10.13;;;4.72;;
12519;SDS011;6325;49.540;8.364;2023-10-31T14:20:43;5.90;;;3.40;;
12519;SDS011;6325;49.540;8.364;2023-10-31T14:23:10;5.32;;;3.55;;
12519;SDS011;6325;49.540;8.364;2023-10-31T14:25:37;9.43;;;5.25;;
12519;SDS011;6325;49.540;8.364;2023-10-31T14:28:04;8.57;;;4.23;;
12519;SDS011;6325;49.540;8.364;2023-10-31T14:30:31;3.07;;;1.70;;
12519;SDS011;6325;49.540;8.364;2023-10-31T14:33:00;2.60;;;1.60;;
12519;SDS011;6325;49.540;8.364;2023-10-31T14:35:27;4.18;;;2.72;;
12519;SDS011;6325;49.540;8.364;2023-10-31T14:37:53;12.23;;;6.00;;
12519;SDS011;6325;49.540;8.364;2023-10-31T14:40:20;2.70;;;1.88;;
12519;SDS011;6325;49.540;8.364;2023-10-31T14:42:47;2.25;;;1.80;;
12519;SDS011;6325;49.540;8.364;2023-10-31T14:45:14;4.60;;;2.65;;
12519;SDS011;6325;49.540;8.364;2023-10-31T14:47:41;1.80;;;1.42;;
12519;SDS011;6325;49.540;8.364;2023-10-31T14:50:09;1.25;;;0.60;;
12519;SDS011;6325;49.540;8.364;2023-10-31T14:52:36;0.93;;;0.88;;
12519;SDS011;6325;49.540;8.364;2023-10-31T14:55:03;5.40;;;3.20;;
12519;SDS011;6325;49.540;8.364;2023-10-31T14:57:31;1.10;;;1.00;;
12519;SDS011;6325;49.540;8.364;2023-10-31T14:59:57;4.80;;;2.37;;
12519;SDS011;6325;49.540;8.364;2023-10-31T15:02:24;1.70;;;1.40;;
12519;SDS011;6325;49.540;8.364;2023-10-31T15:04:51;0.90;;;0.80;;
12519;SDS011;6325;49.540;8.364;2023-10-31T15:07:19;0.70;;;0.70;;